• Join FlightAware (Why Join?)
  • Login
  • US Flag 
09:06AM EST


 

Airport Tracker/Info


-or-


 

Live Flight TrackerFlight Track Log ✈ TCF3476 ✈ 21-Apr-2013 ✈ CYOW - KIAD

Flight Track Log - Related Links

Times and Time Zones

All times are in EDT time to prevent confusion due to time zone crossing. See the TCF3476 flight status page for this flight to view local times or setup timezone preferences in your user account.

Time Position Orientation Groundspeed Altitude Reporting Facility
EDT Latitude Longitude Course Direction KTS MPH feet Rate Location/Type
06:13AM 45.3000 -75.6833 192° South 150 173 1,400  Level Montreal Center
06:14AM 45.3333 -75.7333 313° West 170 196 3,400 2,400 Climbing Montreal Center
06:15AM 45.2833 -75.8000 223° Southwest 240 276 6,300 3,120 Climbing Montreal Center
06:16AM 44.9846 -75.7330 190° South  Level FlightAware Approximate
06:16AM 45.2167 -75.8333 199° South 280 322 9,700  Level Montreal Center
06:17AM 44.8782 -75.7832 197° South  Level FlightAware Approximate
06:17AM 45.1333 -75.8500 188° South 320 368 12,300  Level Montreal Center
06:18AM 44.7703 -75.8266 193° South  Level FlightAware Approximate
06:18AM 45.0333 -75.8667 187° South 330 380 15,200  Level Montreal Center
06:19AM 44.6848 -75.8913 192° South  Level FlightAware Approximate
06:19AM 44.9500 -75.9000 196° South 350 403 18,200  Level Montreal Center
06:20AM 44.8500 -75.9500 200° South 350 403 20,700 2,460 Climbing Montreal Center
06:21AM 44.7500 -75.9667 187° South 350 403 23,200 2,100 Climbing Montreal Center
06:22AM 44.6500 -76.0000 193° South 360 414 24,900 1,740 Climbing Montreal Center
06:23AM 44.5500 -76.0000 180° South 380 437 26,700 1,800 Climbing Montreal Center
06:24AM 44.4333 -76.0167 186° South 390 449 28,600 1,620 Climbing Montreal Center
06:25AM 44.3333 -76.0167 180° South 390 449 30,000 660 Climbing Montreal Center
06:26AM 44.2167 -76.0333 186° South 400 460 30,000  Level Montreal Center
06:27AM 44.1167 -76.0667 193° South 390 449 30,000  Level Montreal Center
06:28AM 44.0000 -76.0667 180° South 400 460 30,000  Level Montreal Center
06:29AM 43.8833 -76.0833 186° South 400 460 30,000  Level Montreal Center
06:30AM 43.7833 -76.1000 187° South 400 460 30,000  Level Montreal Center
06:31AM 43.6667 -76.1333 192° South 390 449 30,000  Level Montreal Center
06:32AM 43.5667 -76.1333 180° South 390 449 30,000  Level Montreal Center
06:33AM 43.4500 -76.1500 186° South 390 449 30,000  Level Montreal Center
06:34AM 43.3500 -76.1833 194° South 390 449 30,000  Level Montreal Center
06:35AM 43.2333 -76.2000 186° South 390 449 30,000  Level Montreal Center
06:37AM 43.1336 -76.2303 192° South 406 467 30,000  Level Boston Center
06:39AM 42.9244 -76.4033 211° Southwest 368 423 30,000  Level Cleveland Center
06:40AM 42.8375 -76.4744 211° Southwest 368 423 30,000  Level Cleveland Center
06:41AM 42.7522 -76.5450 211° Southwest 368 423 30,000  Level Cleveland Center
06:42AM 42.6664 -76.6122 210° Southwest 385 443 30,000  Level New York Center
06:43AM 42.5733 -76.6883 211° Southwest 385 443 30,000  Level New York Center
06:44AM 42.4864 -76.7594 211° Southwest 380 437 30,000  Level New York Center
06:45AM 42.3997 -76.8300 211° Southwest 375 432 30,000 -60 Level New York Center
06:46AM 42.3150 -76.8981 211° Southwest 375 432 29,900 -420 Descending New York Center
06:47AM 42.2306 -76.9628 210° Southwest 375 432 29,200 -960 Descending New York Center
06:48AM 42.1478 -77.0306 211° Southwest 369 425 28,000 -1,200 Descending New York Center
06:49AM 42.0650 -77.0983 211° Southwest 364 419 26,800 -960 Descending New York Center
06:50AM 41.9825 -77.1628 210° Southwest 353 406 26,100 -420 Descending New York Center
06:51AM 41.9019 -77.2278 211° Southwest 353 406 26,000 -60 Descending New York Center
06:52AM 41.8217 -77.2894 210° Southwest 348 400 26,000  Level New York Center
06:53AM 41.7431 -77.3539 211° Southwest 348 400 26,000  Level New York Center
06:54AM 41.6625 -77.4156 210° Southwest 343 395 26,000  Level New York Center
06:55AM 41.5764 -77.4681 205° Southwest 343 395 26,000  Level New York Center
06:56AM 41.4728 -77.4550 175° South 347 399 26,000  Level New York Center
06:57AM 41.3675 -77.4389 173° South 362 417 26,000  Level New York Center
06:58AM 41.2639 -77.4258 175° South 372 428 26,000 -180 Level New York Center
06:59AM 41.1608 -77.4103 174° South 377 434 25,700 -480 Descending New York Center
07:00AM 41.0553 -77.3972 175° South 382 440 25,100 -720 Descending New York Center
07:01AM 40.9539 -77.3844 175° South 382 440 24,300 -960 Descending New York Center
07:02AM 40.8522 -77.3719 175° South 377 434 23,200 -1,200 Descending New York Center
07:03AM 40.7531 -77.3597 175° South 377 434 22,000 -1,620 Descending New York Center
07:04AM 40.6517 -77.3472 175° South 371 427 20,100 -1,860 Descending New York Center
07:05AM 40.5625 -77.3361 175° South 364 419 18,300 -1,080 Descending New York Center
07:06AM 40.4550 -77.3203 174° South 359 413 18,000 -240 Descending New York Center
07:07AM 40.3783 -77.3131 176° South 334 384 17,900 -600 Descending New York Center
07:09AM 40.1500 -77.2667 171° South 326 375 16,100 -900 Descending Potomac TRACON
07:10AM 40.0667 -77.2333 163° South 328 377 15,000 -1,080 Descending Potomac TRACON
07:11AM 39.9833 -77.2167 171° South 309 356 14,100 -960 Descending Potomac TRACON
07:12AM 39.9167 -77.2167 180° South 304 350 13,300 -600 Descending Potomac TRACON
07:13AM 39.8333 -77.2167 180° South 302 348 13,000 -180 Descending Potomac TRACON
07:14AM 39.7500 -77.2167 180° South 303 349 13,000 -660 Level Potomac TRACON
07:15AM 39.6833 -77.2500 201° Southwest 286 329 11,800 -1,440 Descending Potomac TRACON
07:16AM 39.6333 -77.3167 226° Southwest 278 320 10,300 -1,440 Descending Potomac TRACON
07:17AM 39.5500 -77.3500 197° South 282 325 9,000 -1,260 Descending Potomac TRACON
07:18AM 39.4833 -77.3500 180° South 280 322 8,000 -1,080 Descending Potomac TRACON
07:19AM 39.4000 -77.3667 189° South 276 318 7,000 -1,080 Descending Potomac TRACON
07:20AM 39.3333 -77.3667 180° South 273 314 5,900 -1,080 Descending Potomac TRACON
07:21AM 39.2667 -77.3667 180° South 276 318 5,000 -900 Descending Potomac TRACON
07:22AM 39.2000 -77.3667 180° South 275 316 4,300 -480 Descending Potomac TRACON
07:23AM 39.1167 -77.3500 171° South 274 315 4,100 -240 Descending Potomac TRACON
07:24AM 39.0333 -77.3500 180° South 276 318 3,900 -540 Descending Potomac TRACON
07:25AM 38.9667 -77.3500 180° South 280 322 3,100 -420 Descending Potomac TRACON
07:26AM 38.8833 -77.3500 180° South 272 313 3,100 -60 Level Potomac TRACON
07:27AM 38.8167 -77.3667 191° South 230 265 3,000 -300 Descending Potomac TRACON
07:28AM 38.8167 -77.4167 270° West 187 215 2,500 -540 Descending Potomac TRACON